Belmond, Iowa
Current Conditions -  °F | °C
As of 3:55 AM on Monday 22 Dec 2014 (Local Time) from KCAV Reporting Station
Haze Haze  
Wind Chill: 30°   Ceiling: 400
Heat Index: 39°   Visibility: 3mi
Dew Point: 39°   Wind: 18mph
Humidity: 100%   Direction: 150°SSE
Pressure: 29.65"   Gusts: NA
Location:  42.85°N, 93.61°W
Report Text: KCAV 220955Z AUTO 15016KT 3SM BR OVC004 04/04 A2965 RMK AO2
Loading
Personal Weather Stations






























Interactive Weather Map New forecast layout! Learn more

10-Day Weather Forecast

Advertisements
Track Severe Weather on mobile